createdAt,value
2024-03-14T00:01:00.632Z,82.93
2024-03-14T00:03:29.350Z,83.11
2024-03-14T00:05:57.352Z,82.87
2024-03-14T00:08:25.238Z,82.63
2024-03-14T00:10:55.440Z,83.16
2024-03-14T00:13:24.454Z,82.70
2024-03-14T00:15:52.403Z,83.06
2024-03-14T00:18:20.386Z,82.31
2024-03-14T00:20:48.636Z,82.27
2024-03-14T00:23:16.727Z,82.28
2024-03-14T00:25:44.656Z,82.54
2024-03-14T00:28:14.090Z,82.54
2024-03-14T00:30:42.329Z,82.69
2024-03-14T00:33:11.328Z,82.36
2024-03-14T00:35:40.202Z,82.93
2024-03-14T00:38:08.546Z,82.76
2024-03-14T00:40:36.944Z,83.43
2024-03-14T00:43:05.010Z,83.05
2024-03-14T00:45:32.963Z,83.69
2024-03-14T00:48:01.361Z,83.24
2024-03-14T00:50:29.373Z,83.03
2024-03-14T00:52:57.305Z,83.64
2024-03-14T00:55:25.246Z,83.33
2024-03-14T00:57:53.146Z,83.93
2024-03-14T01:00:24.519Z,83.60
2024-03-14T01:02:52.624Z,83.85
2024-03-14T01:05:21.437Z,83.97
2024-03-14T01:07:49.756Z,83.19
2024-03-14T01:10:17.646Z,83.28
2024-03-14T01:12:47.349Z,83.51
2024-03-14T01:15:19.135Z,83.51
2024-03-14T01:17:47.327Z,83.67
2024-03-14T01:20:17.395Z,84.08
2024-03-14T01:22:45.442Z,83.24
2024-03-14T01:25:13.395Z,84.21
2024-03-14T01:27:41.283Z,84.39
2024-03-14T01:30:11.979Z,83.84
2024-03-14T01:32:40.095Z,84.51
2024-03-14T01:35:08.359Z,84.79
2024-03-14T01:37:36.785Z,84.63
2024-03-14T01:40:05.068Z,84.22
2024-03-14T01:42:33.116Z,84.08
2024-03-14T01:45:01.730Z,84.83
2024-03-14T01:47:30.785Z,84.05
2024-03-14T01:49:58.662Z,84.25
2024-03-14T01:52:26.964Z,84.68
2024-03-14T01:54:54.910Z,84.68
2024-03-14T01:57:22.875Z,84.97
2024-03-14T01:59:51.779Z,84.97
2024-03-14T02:02:19.832Z,84.89
2024-03-14T02:04:48.667Z,83.26
2024-03-14T02:07:16.703Z,83.25
2024-03-14T02:09:44.577Z,84.17
2024-03-14T02:12:12.571Z,84.93
2024-03-14T02:14:40.535Z,85.22
2024-03-14T02:17:08.386Z,84.98
2024-03-14T02:19:37.310Z,85.51
2024-03-14T02:22:05.307Z,84.71
2024-03-14T02:24:33.214Z,85.23
2024-03-14T02:27:05.792Z,84.11
2024-03-14T02:29:33.842Z,84.69
2024-03-14T02:32:01.761Z,84.63
2024-03-14T02:34:29.609Z,86.04
2024-03-14T02:36:57.482Z,86.00
2024-03-14T02:39:25.493Z,86.53
2024-03-14T02:41:53.458Z,86.41
2024-03-14T02:44:23.102Z,87.32
2024-03-14T02:46:52.050Z,86.67
2024-03-14T02:49:21.827Z,86.71
2024-03-14T02:51:49.734Z,86.25
2024-03-14T02:54:17.781Z,85.79
2024-03-14T02:56:48.710Z,86.44
2024-03-14T02:59:16.736Z,86.55
2024-03-14T03:01:44.833Z,86.17
2024-03-14T03:04:12.738Z,87.85
2024-03-14T03:06:46.027Z,86.97
2024-03-14T03:09:15.547Z,87.50
2024-03-14T03:11:44.027Z,87.22
2024-03-14T03:14:11.973Z,87.98
2024-03-14T03:16:39.836Z,87.71
2024-03-14T03:19:10.671Z,88.09
2024-03-14T03:21:39.392Z,87.15
2024-03-14T03:24:08.675Z,87.87
2024-03-14T03:26:35.648Z,86.98
2024-03-14T03:29:03.894Z,88.11
2024-03-14T03:31:30.838Z,87.85
2024-03-14T03:33:58.917Z,87.41
2024-03-14T03:36:27.467Z,87.40
2024-03-14T03:38:55.644Z,87.56
2024-03-14T03:41:24.796Z,88.26
2024-03-14T03:43:53.010Z,88.15
2024-03-14T03:46:20.976Z,87.65
2024-03-14T03:48:49.041Z,88.06
2024-03-14T03:51:19.252Z,88.29
2024-03-14T03:53:47.536Z,88.21
2024-03-14T03:56:15.016Z,88.00
2024-03-14T03:58:44.025Z,88.03
2024-03-14T04:01:13.297Z,88.27
2024-03-14T04:03:42.479Z,88.83
2024-03-14T04:06:12.020Z,87.08
2024-03-14T04:08:39.146Z,87.60
2024-03-14T04:11:08.684Z,87.68
2024-03-14T04:13:35.946Z,87.93
2024-03-14T04:16:05.697Z,88.35
2024-03-14T04:18:33.790Z,87.95
2024-03-14T04:21:02.529Z,88.40
2024-03-14T04:23:30.801Z,88.17
2024-03-14T04:25:58.691Z,88.05
2024-03-14T04:28:27.099Z,89.10
2024-03-14T04:30:55.201Z,88.19
2024-03-14T04:33:23.873Z,88.80
2024-03-14T04:35:53.345Z,88.04
2024-03-14T04:38:24.535Z,88.58
2024-03-14T04:40:52.518Z,88.05
2024-03-14T04:43:20.487Z,88.42
2024-03-14T04:45:49.406Z,87.07
2024-03-14T04:48:17.647Z,87.57
2024-03-14T04:50:47.800Z,88.06
2024-03-14T04:53:15.794Z,87.29
2024-03-14T04:55:44.113Z,87.73
2024-03-14T04:58:16.784Z,87.40
2024-03-14T05:00:47.025Z,86.25
2024-03-14T05:03:15.233Z,87.25
2024-03-14T05:05:43.189Z,87.18
2024-03-14T05:08:12.025Z,87.87
2024-03-14T05:10:40.400Z,87.29
2024-03-14T05:13:08.571Z,88.08
2024-03-14T05:15:37.537Z,87.27
2024-03-14T05:18:06.899Z,88.31
2024-03-14T05:20:34.896Z,88.11
2024-03-14T05:23:02.838Z,87.43
2024-03-14T05:25:30.709Z,88.37
2024-03-14T05:27:58.853Z,87.51
2024-03-14T05:30:26.808Z,88.16
2024-03-14T05:32:54.956Z,87.79
2024-03-14T05:35:23.056Z,88.18
2024-03-14T05:37:51.657Z,87.47
2024-03-14T05:40:19.546Z,88.10
2024-03-14T05:42:48.284Z,88.22
2024-03-14T05:45:17.479Z,88.42
2024-03-14T05:47:46.502Z,88.57
2024-03-14T05:50:14.514Z,88.92
2024-03-14T05:52:42.448Z,87.86
2024-03-14T05:55:11.144Z,87.01
2024-03-14T05:57:40.358Z,87.69
2024-03-14T06:00:10.670Z,87.79
2024-03-14T06:02:40.303Z,87.60
2024-03-14T06:05:09.285Z,87.73
2024-03-14T06:07:37.265Z,88.75
2024-03-14T06:10:05.410Z,88.32
2024-03-14T06:12:33.363Z,88.08
2024-03-14T06:15:03.934Z,87.23
2024-03-14T06:17:31.917Z,87.77
2024-03-14T06:19:59.818Z,89.00
2024-03-14T06:22:28.146Z,88.82
2024-03-14T06:24:56.101Z,87.73
2024-03-14T06:27:24.007Z,87.89
2024-03-14T06:29:52.602Z,87.95
2024-03-14T06:32:22.457Z,88.56
2024-03-14T06:34:50.653Z,89.06
2024-03-14T06:37:18.980Z,88.57
2024-03-14T06:39:47.342Z,89.30
2024-03-14T06:42:16.592Z,89.11
2024-03-14T06:44:44.724Z,90.42
2024-03-14T06:47:12.651Z,90.49
2024-03-14T06:49:40.536Z,89.89
2024-03-14T06:52:10.606Z,89.90
2024-03-14T06:54:39.114Z,90.42
2024-03-14T06:57:11.067Z,89.68
2024-03-14T06:59:39.735Z,89.34
2024-03-14T07:02:08.687Z,90.07
2024-03-14T07:04:36.987Z,88.93
2024-03-14T07:07:05.031Z,89.51
2024-03-14T07:09:33.543Z,89.32
2024-03-14T07:12:01.558Z,88.03
2024-03-14T07:14:30.506Z,89.16
2024-03-14T07:16:58.503Z,88.99
2024-03-14T07:19:26.489Z,88.47
2024-03-14T07:21:55.558Z,88.84
2024-03-14T07:24:24.191Z,88.81
2024-03-14T07:26:52.672Z,88.54
2024-03-14T07:29:20.654Z,89.12
2024-03-14T07:31:52.925Z,88.20
2024-03-14T07:34:21.045Z,88.53
2024-03-14T07:36:49.189Z,87.24
2024-03-14T07:39:17.425Z,88.88
2024-03-14T07:41:45.363Z,88.87
2024-03-14T07:44:21.410Z,88.46
2024-03-14T07:46:55.994Z,87.43
2024-03-14T07:49:26.756Z,88.26
2024-03-14T07:51:56.337Z,88.58
2024-03-14T07:54:28.331Z,89.73
2024-03-14T07:56:56.491Z,88.82
2024-03-14T07:59:27.590Z,88.80
2024-03-14T08:01:57.436Z,90.41
2024-03-14T08:04:25.638Z,90.36
2024-03-14T08:06:53.847Z,89.86
2024-03-14T08:09:27.210Z,90.03
2024-03-14T08:11:55.997Z,89.81
2024-03-14T08:14:25.136Z,90.08
2024-03-14T08:16:55.669Z,89.90
2024-03-14T08:19:24.478Z,89.19
2024-03-14T08:21:52.480Z,88.19
2024-03-14T08:24:20.512Z,88.07
2024-03-14T08:26:48.701Z,88.20
2024-03-14T08:29:16.629Z,88.12
2024-03-14T08:31:46.406Z,88.78
2024-03-14T08:34:14.305Z,88.91
2024-03-14T08:36:43.694Z,88.61
2024-03-14T08:39:13.345Z,88.32
2024-03-14T08:41:42.276Z,88.86
2024-03-14T08:44:12.757Z,88.06
2024-03-14T08:46:41.371Z,88.54
2024-03-14T08:49:09.365Z,88.29
2024-03-14T08:51:39.698Z,88.12
2024-03-14T08:54:15.435Z,88.43
2024-03-14T08:56:43.343Z,88.74
2024-03-14T08:59:14.327Z,88.35
2024-03-14T09:01:42.438Z,87.53
2024-03-14T09:04:12.020Z,88.12
2024-03-14T09:06:40.481Z,87.82
2024-03-14T09:09:08.923Z,87.18
2024-03-14T09:11:37.022Z,87.29
2024-03-14T09:14:06.276Z,87.17
2024-03-14T09:16:35.062Z,86.88
2024-03-14T09:19:05.083Z,86.65
2024-03-14T09:21:33.232Z,86.20
2024-03-14T09:24:01.477Z,85.84
2024-03-14T09:26:29.572Z,85.10
2024-03-14T09:28:58.791Z,85.58
2024-03-14T09:31:26.795Z,84.65
2024-03-14T09:33:54.760Z,83.85
2024-03-14T09:36:22.726Z,84.36
2024-03-14T09:38:50.605Z,84.67
2024-03-14T09:41:22.919Z,84.82
2024-03-14T09:43:52.163Z,85.96
2024-03-14T09:46:20.965Z,85.39
2024-03-14T09:48:48.921Z,84.63
2024-03-14T09:51:17.869Z,84.28
2024-03-14T09:53:45.926Z,81.79
2024-03-14T09:56:13.942Z,82.64
2024-03-14T09:58:41.874Z,83.21
2024-03-14T10:01:11.019Z,83.46
2024-03-14T10:03:39.833Z,83.27
2024-03-14T10:06:17.348Z,81.32
2024-03-14T10:08:49.280Z,80.79
2024-03-14T10:11:19.990Z,81.64
2024-03-14T10:13:49.115Z,80.84
2024-03-14T10:16:17.150Z,81.47
2024-03-14T10:18:46.806Z,81.45
2024-03-14T10:21:14.837Z,81.86
2024-03-14T10:23:42.716Z,81.39
2024-03-14T10:26:10.972Z,80.65
2024-03-14T10:28:40.610Z,80.41
2024-03-14T10:31:09.378Z,81.65
2024-03-14T10:33:38.913Z,80.69
2024-03-14T10:36:08.022Z,78.37
2024-03-14T10:38:38.171Z,79.17
2024-03-14T10:41:10.181Z,77.49
2024-03-14T10:43:40.741Z,78.67
2024-03-14T10:46:11.868Z,77.54
2024-03-14T10:48:40.914Z,76.28
2024-03-14T10:51:09.107Z,76.86
2024-03-14T10:53:37.009Z,78.67
2024-03-14T10:56:04.914Z,76.92
2024-03-14T10:58:33.007Z,76.22
2024-03-14T11:01:01.309Z,75.15
2024-03-14T11:03:29.427Z,75.57
2024-03-14T11:05:57.438Z,75.82
2024-03-14T11:08:27.171Z,72.53
2024-03-14T11:10:55.312Z,75.24
2024-03-14T11:13:24.743Z,75.47
2024-03-14T11:15:52.832Z,75.26
2024-03-14T11:18:21.950Z,74.19
2024-03-14T11:20:51.101Z,73.30
2024-03-14T11:23:19.574Z,73.49
2024-03-14T11:25:47.521Z,73.24
2024-03-14T11:28:15.393Z,71.40
2024-03-14T11:30:44.218Z,71.47
2024-03-14T11:33:12.334Z,71.18
2024-03-14T11:35:44.745Z,71.40
2024-03-14T11:38:31.928Z,71.81
2024-03-14T11:41:02.770Z,72.20
2024-03-14T11:43:30.816Z,72.29
2024-03-14T11:45:59.390Z,70.64
2024-03-14T11:48:27.532Z,69.60
2024-03-14T11:50:55.661Z,69.66
2024-03-14T11:53:23.609Z,71.16
2024-03-14T11:55:58.672Z,70.94
2024-03-14T11:58:34.994Z,69.40
2024-03-14T12:01:05.118Z,70.02
2024-03-14T12:03:33.282Z,70.89
2024-03-14T12:06:07.009Z,70.96
2024-03-14T12:08:37.596Z,71.08
2024-03-14T12:11:06.290Z,70.84
2024-03-14T12:13:34.431Z,68.41
2024-03-14T12:16:03.419Z,68.87
2024-03-14T12:18:32.059Z,68.50
2024-03-14T12:21:01.217Z,69.16
2024-03-14T12:23:29.588Z,67.68
2024-03-14T12:26:02.955Z,66.54
2024-03-14T12:28:32.681Z,66.57
2024-03-14T12:31:02.922Z,65.15
2024-03-14T12:33:32.014Z,66.00
2024-03-14T12:36:01.838Z,66.39
2024-03-14T12:38:30.322Z,65.09
2024-03-14T12:40:59.365Z,62.02
2024-03-14T12:43:28.880Z,64.21
2024-03-14T12:45:56.796Z,63.95
2024-03-14T12:48:24.853Z,64.70
2024-03-14T12:50:54.986Z,63.58
2024-03-14T12:53:25.554Z,59.65
2024-03-14T12:55:53.773Z,58.62
2024-03-14T12:58:23.588Z,56.86
2024-03-14T13:00:52.769Z,58.19
2024-03-14T13:03:23.398Z,57.99
2024-03-14T13:05:51.790Z,57.35
2024-03-14T13:08:23.608Z,58.29
2024-03-14T13:10:51.475Z,58.09
2024-03-14T13:13:22.703Z,57.33
2024-03-14T13:15:54.023Z,56.43
2024-03-14T13:18:23.121Z,58.69
2024-03-14T13:20:57.470Z,59.39
2024-03-14T13:23:27.421Z,58.45
2024-03-14T13:25:55.320Z,58.83
2024-03-14T13:28:24.473Z,58.16
2024-03-14T13:30:53.026Z,58.14
2024-03-14T13:33:21.577Z,57.23
2024-03-14T13:35:49.679Z,57.44
2024-03-14T13:38:17.553Z,56.68
2024-03-14T13:40:46.420Z,55.39
2024-03-14T13:43:23.729Z,53.56
2024-03-14T13:45:53.333Z,54.68
2024-03-14T13:48:22.213Z,55.29
2024-03-14T13:50:52.995Z,55.94
2024-03-14T13:53:32.563Z,56.24
2024-03-14T13:56:01.768Z,55.63
2024-03-14T13:58:37.278Z,55.31
2024-03-14T14:01:20.663Z,54.10
2024-03-14T14:03:49.073Z,56.16
2024-03-14T14:06:18.357Z,55.61
2024-03-14T14:08:46.423Z,56.29
2024-03-14T14:11:14.546Z,56.66
2024-03-14T14:13:46.837Z,56.29
2024-03-14T14:16:16.460Z,55.04
2024-03-14T14:18:45.565Z,55.87
2024-03-14T14:21:13.552Z,55.57
2024-03-14T14:23:41.711Z,55.96
2024-03-14T14:26:09.669Z,54.44
2024-03-14T14:28:37.758Z,55.39
2024-03-14T14:31:06.069Z,54.44
2024-03-14T14:33:35.916Z,54.49
2024-03-14T14:36:04.923Z,53.07
2024-03-14T14:38:32.831Z,53.54
2024-03-14T14:41:00.824Z,53.96
2024-03-14T14:43:28.697Z,52.61
2024-03-14T14:45:56.918Z,53.51
2024-03-14T14:48:26.281Z,51.33
2024-03-14T14:50:54.229Z,52.08
2024-03-14T14:53:22.403Z,51.36
2024-03-14T14:55:51.095Z,52.45
2024-03-14T14:58:18.973Z,52.35
2024-03-14T15:00:48.373Z,52.16
2024-03-14T15:03:16.714Z,54.42
2024-03-14T15:05:44.720Z,52.82
2024-03-14T15:08:14.142Z,54.49
2024-03-14T15:10:43.295Z,55.74
2024-03-14T15:13:12.240Z,56.54
2024-03-14T15:15:40.285Z,56.23
2024-03-14T15:18:10.092Z,56.39
2024-03-14T15:20:38.409Z,55.05
2024-03-14T15:23:08.131Z,56.68
2024-03-14T15:25:36.893Z,56.49
2024-03-14T15:28:05.013Z,55.75
2024-03-14T15:30:34.515Z,55.85
2024-03-14T15:33:02.937Z,55.96
2024-03-14T15:35:30.909Z,55.79
2024-03-14T15:37:59.611Z,56.19
2024-03-14T15:40:28.822Z,55.28
2024-03-14T15:42:58.073Z,54.55
2024-03-14T15:45:26.224Z,55.43
2024-03-14T15:47:54.659Z,56.20
2024-03-14T15:50:23.966Z,56.01
2024-03-14T15:52:51.889Z,56.77
2024-03-14T15:55:21.952Z,57.44
2024-03-14T15:57:50.093Z,55.75
2024-03-14T16:00:20.867Z,55.88
2024-03-14T16:02:49.280Z,55.33
2024-03-14T16:05:18.031Z,56.54
2024-03-14T16:07:48.227Z,57.14
2024-03-14T16:10:17.626Z,58.13
2024-03-14T16:12:46.032Z,57.96
2024-03-14T16:15:14.696Z,57.27
2024-03-14T16:17:43.503Z,58.52
2024-03-14T16:20:31.649Z,57.53
2024-03-14T16:23:04.579Z,58.85
2024-03-14T16:25:35.441Z,59.11
2024-03-14T16:28:04.397Z,58.74
2024-03-14T16:30:32.435Z,58.39
2024-03-14T16:33:00.621Z,59.88
2024-03-14T16:35:31.047Z,59.55
2024-03-14T16:38:00.893Z,58.81
2024-03-14T16:40:29.413Z,59.66
2024-03-14T16:42:57.280Z,60.38
2024-03-14T16:45:29.404Z,60.82
2024-03-14T16:47:57.460Z,61.10
2024-03-14T16:50:26.041Z,61.89
2024-03-14T16:52:54.398Z,61.60
2024-03-14T16:55:22.320Z,61.79
2024-03-14T16:57:50.624Z,61.86
2024-03-14T17:00:23.460Z,61.89
2024-03-14T17:02:51.551Z,61.88
2024-03-14T17:05:20.979Z,62.60
2024-03-14T17:07:49.010Z,62.88
2024-03-14T17:10:17.493Z,62.78
2024-03-14T17:12:45.572Z,62.87
2024-03-14T17:15:13.528Z,63.32
2024-03-14T17:17:41.806Z,63.14
2024-03-14T17:20:13.489Z,63.82
2024-03-14T17:22:42.234Z,63.18
2024-03-14T17:25:11.535Z,62.55
2024-03-14T17:27:41.004Z,62.50
2024-03-14T17:30:09.688Z,62.74
2024-03-14T17:32:37.974Z,63.56
2024-03-14T17:35:06.358Z,63.88
2024-03-14T17:37:34.260Z,63.74
2024-03-14T17:40:05.008Z,63.96
2024-03-14T17:42:39.013Z,64.93
2024-03-14T17:45:07.612Z,65.02
2024-03-14T17:47:35.607Z,65.22
2024-03-14T17:50:03.924Z,65.63
2024-03-14T17:52:31.839Z,66.30
2024-03-14T17:54:59.713Z,67.34
2024-03-14T17:57:28.999Z,67.64
2024-03-14T17:59:58.243Z,67.63
2024-03-14T18:02:26.219Z,68.00
2024-03-14T18:04:55.132Z,68.16
2024-03-14T18:07:23.145Z,68.27
2024-03-14T18:09:51.619Z,68.67
2024-03-14T18:12:20.105Z,69.59
2024-03-14T18:14:48.080Z,69.87
2024-03-14T18:17:21.017Z,70.06
2024-03-14T18:19:50.897Z,70.35
2024-03-14T18:22:20.392Z,69.81
2024-03-14T18:24:48.282Z,70.05
2024-03-14T18:27:17.331Z,69.50
2024-03-14T18:29:45.330Z,70.00
2024-03-14T18:32:14.780Z,70.17
2024-03-14T18:34:43.239Z,70.59
2024-03-14T18:37:13.207Z,71.31
2024-03-14T18:39:41.917Z,71.59
2024-03-14T18:42:10.481Z,71.50
2024-03-14T18:44:48.265Z,71.82
2024-03-14T18:47:16.462Z,72.14
2024-03-14T18:49:44.512Z,71.94
2024-03-14T18:52:13.148Z,71.38
2024-03-14T18:54:48.605Z,71.88
2024-03-14T18:57:18.307Z,71.75
2024-03-14T18:59:46.878Z,71.65
2024-03-14T19:02:17.901Z,71.62
2024-03-14T19:04:46.504Z,72.21
2024-03-14T19:07:14.927Z,72.25
2024-03-14T19:09:43.144Z,72.25
2024-03-14T19:12:11.108Z,71.86
2024-03-14T19:14:41.966Z,72.11
2024-03-14T19:17:12.618Z,72.54
2024-03-14T19:19:40.806Z,72.58
2024-03-14T19:22:10.750Z,72.27
2024-03-14T19:24:38.786Z,72.85
2024-03-14T19:27:07.008Z,72.82
2024-03-14T19:29:35.031Z,72.66
2024-03-14T19:32:04.935Z,72.58
2024-03-14T19:34:34.149Z,72.71
2024-03-14T19:37:04.293Z,72.96
2024-03-14T19:39:33.651Z,72.95
2024-03-14T19:42:02.399Z,73.34
2024-03-14T19:44:30.481Z,73.32
2024-03-14T19:47:01.952Z,73.67
2024-03-14T19:49:29.956Z,73.05
2024-03-14T19:51:57.866Z,73.64
2024-03-14T19:54:25.822Z,74.07
2024-03-14T19:56:53.770Z,74.02
2024-03-14T19:59:23.677Z,74.08
2024-03-14T20:01:52.096Z,74.03
2024-03-14T20:04:20.076Z,74.69
2024-03-14T20:06:48.336Z,74.51
2024-03-14T20:09:16.471Z,74.66
2024-03-14T20:11:45.093Z,74.88
2024-03-14T20:14:13.176Z,75.53
2024-03-14T20:16:41.083Z,75.79
2024-03-14T20:19:09.009Z,75.44
2024-03-14T20:21:37.416Z,75.42
2024-03-14T20:24:05.960Z,76.12
2024-03-14T20:26:33.930Z,76.30
2024-03-14T20:29:02.269Z,76.08
2024-03-14T20:31:30.152Z,76.35
2024-03-14T20:33:58.469Z,75.88
2024-03-14T20:36:27.141Z,75.46
2024-03-14T20:41:25.854Z,76.30
2024-03-14T20:43:53.840Z,76.42
2024-03-14T20:46:21.926Z,77.01
2024-03-14T20:48:51.502Z,77.05
2024-03-14T20:51:19.939Z,76.78
2024-03-14T20:53:47.873Z,76.78
2024-03-14T20:56:16.013Z,77.06
2024-03-14T20:58:43.907Z,76.99
2024-03-14T21:01:11.808Z,76.86
2024-03-14T21:03:39.788Z,76.75
2024-03-14T21:06:07.725Z,76.58
2024-03-14T21:08:35.686Z,76.39
2024-03-14T21:11:03.946Z,76.80
2024-03-14T21:13:31.914Z,76.51
2024-03-14T21:16:00.023Z,76.81
2024-03-14T21:18:29.010Z,76.59
2024-03-14T21:20:58.188Z,76.07
2024-03-14T21:23:26.188Z,76.48
2024-03-14T21:25:55.043Z,76.21
2024-03-14T21:28:22.926Z,76.19
2024-03-14T21:30:51.670Z,76.29
2024-03-14T21:33:19.724Z,75.77
2024-03-14T21:35:47.864Z,75.80
2024-03-14T21:38:15.743Z,75.74
2024-03-14T21:40:44.011Z,75.54
2024-03-14T21:43:11.924Z,75.56
2024-03-14T21:45:40.648Z,75.44
2024-03-14T21:48:11.908Z,75.82
2024-03-14T21:50:40.028Z,75.66
2024-03-14T21:53:07.910Z,75.57
2024-03-14T21:55:35.781Z,75.94
2024-03-14T21:58:05.397Z,75.96
2024-03-14T22:00:33.518Z,76.14
2024-03-14T22:03:01.482Z,76.14
2024-03-14T22:05:31.588Z,76.21
2024-03-14T22:07:59.675Z,76.26
2024-03-14T22:10:27.642Z,76.34
2024-03-14T22:12:55.738Z,76.33
2024-03-14T22:15:23.963Z,76.13
2024-03-14T22:17:52.069Z,76.17
2024-03-14T22:20:21.858Z,76.31
2024-03-14T22:22:50.271Z,76.19
2024-03-14T22:25:18.627Z,76.57
2024-03-14T22:27:47.349Z,76.37
2024-03-14T22:30:15.556Z,76.53
2024-03-14T22:32:43.689Z,76.42
2024-03-14T22:35:12.285Z,76.13
2024-03-14T22:37:40.167Z,76.83
2024-03-14T22:40:09.754Z,76.55
2024-03-14T22:42:38.781Z,75.66
2024-03-14T22:45:07.600Z,75.63
2024-03-14T22:47:35.619Z,74.77
2024-03-14T22:50:05.057Z,76.28
2024-03-14T22:52:33.907Z,75.51
2024-03-14T22:55:01.820Z,75.19
2024-03-14T22:57:29.755Z,75.93
2024-03-14T22:59:57.660Z,75.69
2024-03-14T23:02:25.596Z,76.11
2024-03-14T23:04:54.163Z,75.74
2024-03-14T23:07:24.666Z,76.00
2024-03-14T23:09:54.339Z,74.90
2024-03-14T23:12:22.401Z,75.25
2024-03-14T23:14:51.002Z,75.32
2024-03-14T23:17:19.083Z,75.34
2024-03-14T23:19:46.988Z,75.61
2024-03-14T23:22:15.081Z,75.81
2024-03-14T23:24:43.200Z,76.11
2024-03-14T23:27:11.234Z,76.38
2024-03-14T23:29:39.173Z,76.57
2024-03-14T23:32:08.101Z,76.36
2024-03-14T23:34:36.022Z,76.83
2024-03-14T23:37:03.953Z,76.97
2024-03-14T23:39:31.943Z,76.94
2024-03-14T23:41:59.837Z,76.62
2024-03-14T23:44:27.766Z,77.05
2024-03-14T23:46:55.676Z,76.77
2024-03-14T23:49:23.999Z,77.01
2024-03-14T23:51:52.958Z,77.19
2024-03-14T23:54:20.916Z,77.31
2024-03-14T23:56:48.787Z,77.03
2024-03-14T23:59:16.676Z,77.00
